createdAt,value
2023-05-13T00:03:12.797Z,101067.50
2023-05-13T00:05:43.430Z,101083.75
2023-05-13T00:08:14.369Z,101085.88
2023-05-13T00:10:44.604Z,101091.72
2023-05-13T00:13:14.852Z,101091.91
2023-05-13T00:15:45.099Z,101090.56
2023-05-13T00:18:15.418Z,101092.88
2023-05-13T00:20:45.777Z,101094.47
2023-05-13T00:23:16.919Z,101083.78
2023-05-13T00:25:47.228Z,101090.28
2023-05-13T00:28:17.602Z,101084.13
2023-05-13T00:30:48.976Z,101082.31
2023-05-13T00:33:20.984Z,101088.69
2023-05-13T00:35:51.360Z,101095.84
2023-05-13T00:38:23.048Z,101106.91
2023-05-13T00:40:53.563Z,101110.16
2023-05-13T00:43:23.838Z,101112.94
2023-05-13T00:45:55.761Z,101108.19
2023-05-13T00:48:29.671Z,101111.47
2023-05-13T00:50:59.999Z,101119.75
2023-05-13T00:53:30.442Z,101124.16
2023-05-13T00:56:00.787Z,101132.94
2023-05-13T00:58:31.331Z,101133.44
2023-05-13T01:01:38.791Z,101140.41
2023-05-13T01:04:18.239Z,101139.91
2023-05-13T01:06:59.351Z,101151.97
2023-05-13T01:09:35.569Z,101149.22
2023-05-13T01:12:11.743Z,101149.72
2023-05-13T01:14:52.066Z,101145.31
2023-05-13T01:17:31.987Z,101138.66
2023-05-13T01:20:06.158Z,101136.69
2023-05-13T01:22:36.541Z,101140.41
2023-05-13T01:25:07.503Z,101130.19
2023-05-13T01:27:38.539Z,101133.44
2023-05-13T01:30:10.472Z,101125.47
2023-05-13T01:32:41.809Z,101125.31
2023-05-13T01:35:14.416Z,101124.19
2023-05-13T01:37:47.937Z,101107.91
2023-05-13T01:40:31.828Z,101111.66
2023-05-13T01:43:08.566Z,101110.88
2023-05-13T01:45:39.996Z,101112.16
2023-05-13T01:48:10.596Z,101111.84
2023-05-13T01:50:50.748Z,101105.50
2023-05-13T01:53:22.381Z,101101.91
2023-05-13T01:55:55.499Z,101100.97
2023-05-13T01:58:25.916Z,101107.47
2023-05-13T02:00:56.830Z,101101.94
2023-05-13T02:03:27.411Z,101100.31
2023-05-13T02:05:58.015Z,101097.25
2023-05-13T02:08:30.174Z,101098.88
2023-05-13T02:11:01.287Z,101098.25
2023-05-13T02:13:32.380Z,101104.47
2023-05-13T02:16:02.573Z,101100.88
2023-05-13T02:18:32.911Z,101101.88
2023-05-13T02:21:03.192Z,101099.59
2023-05-13T02:23:33.371Z,101097.97
2023-05-13T02:26:05.214Z,101104.00
2023-05-13T02:28:35.560Z,101094.22
2023-05-13T02:31:05.841Z,101096.19
2023-05-13T02:33:35.959Z,101091.47
2023-05-13T02:36:06.534Z,101095.06
2023-05-13T02:38:36.993Z,101101.06
2023-05-13T02:41:10.452Z,101089.53
2023-05-13T02:43:40.755Z,101096.84
2023-05-13T02:46:11.403Z,101105.66
2023-05-13T02:48:41.602Z,101108.06
2023-05-13T02:51:12.017Z,101096.22
2023-05-13T02:53:42.621Z,101095.88
2023-05-13T02:56:13.091Z,101093.09
2023-05-13T02:58:43.748Z,101093.75
2023-05-13T03:01:14.115Z,101087.25
2023-05-13T03:03:44.551Z,101098.00
2023-05-13T03:06:14.917Z,101097.16
2023-05-13T03:08:45.359Z,101089.06
2023-05-13T03:11:15.632Z,101088.22
2023-05-13T03:13:45.916Z,101081.91
2023-05-13T03:16:17.344Z,101074.25
2023-05-13T03:18:48.790Z,101074.56
2023-05-13T03:21:20.939Z,101074.56
2023-05-13T03:23:52.192Z,101073.75
2023-05-13T03:26:24.164Z,101074.75
2023-05-13T03:28:54.470Z,101063.00
2023-05-13T03:31:25.368Z,101062.03
2023-05-13T03:33:56.144Z,101064.31
2023-05-13T03:36:28.208Z,101059.28
2023-05-13T03:38:59.044Z,101044.81
2023-05-13T03:41:30.695Z,101040.06
2023-05-13T03:44:02.774Z,101035.66
2023-05-13T03:46:33.327Z,101032.41
2023-05-13T03:49:03.612Z,101036.16
2023-05-13T03:51:35.393Z,101031.44
2023-05-13T03:54:05.798Z,101019.56
2023-05-13T03:56:35.991Z,101022.16
2023-05-13T03:59:06.318Z,101015.81
2023-05-13T04:01:39.064Z,100999.34
2023-05-13T04:04:09.319Z,101000.19
2023-05-13T04:06:39.615Z,100998.41
2023-05-13T04:09:10.098Z,100997.25
2023-05-13T04:11:40.166Z,100993.16
2023-05-13T04:14:10.265Z,100997.72
2023-05-13T04:16:40.413Z,100985.06
2023-05-13T04:19:11.796Z,100988.28
2023-05-13T04:21:42.062Z,100990.75
2023-05-13T04:24:12.208Z,100992.38
2023-05-13T04:26:43.352Z,100979.81
2023-05-13T04:29:13.872Z,100975.44
2023-05-13T04:31:44.859Z,100974.94
2023-05-13T04:34:16.412Z,100977.72
2023-05-13T04:36:48.979Z,100975.44
2023-05-13T04:39:19.317Z,100970.38
2023-05-13T04:41:49.819Z,100966.47
2023-05-13T04:44:20.136Z,100951.53
2023-05-13T04:46:50.827Z,100952.31
2023-05-13T04:49:21.106Z,100951.53
2023-05-13T04:51:51.914Z,100941.44
2023-05-13T04:54:23.253Z,100934.75
2023-05-13T04:56:54.232Z,100933.78
2023-05-13T04:59:25.124Z,100931.81
2023-05-13T05:01:55.494Z,100916.19
2023-05-13T05:04:25.959Z,100917.81
2023-05-13T05:06:56.851Z,100923.00
2023-05-13T05:09:27.312Z,100915.66
2023-05-13T05:11:57.848Z,100905.25
2023-05-13T05:14:30.618Z,100905.25
2023-05-13T05:17:01.124Z,100906.88
2023-05-13T05:19:32.477Z,100901.16
2023-05-13T05:22:03.106Z,100888.97
2023-05-13T05:24:33.785Z,100887.47
2023-05-13T05:27:04.607Z,100888.31
2023-05-13T05:29:35.873Z,100885.19
2023-05-13T05:32:06.280Z,100891.53
2023-05-13T05:34:37.003Z,100881.28
2023-05-13T05:37:07.791Z,100882.75
2023-05-13T05:39:41.039Z,100880.94
2023-05-13T05:42:11.278Z,100883.69
2023-05-13T05:44:41.478Z,100880.44
2023-05-13T05:47:11.737Z,100882.06
2023-05-13T05:49:41.939Z,100875.88
2023-05-13T05:52:13.689Z,100876.38
2023-05-13T05:54:44.175Z,100871.47
2023-05-13T05:57:14.602Z,100859.28
2023-05-13T05:59:44.844Z,100856.34
2023-05-13T06:02:16.448Z,100848.19
2023-05-13T06:04:47.272Z,100837.59
2023-05-13T06:07:18.938Z,100835.97
2023-05-13T06:09:49.168Z,100821.66
2023-05-13T06:12:19.523Z,100825.38
2023-05-13T06:14:49.876Z,100827.00
2023-05-13T06:17:20.232Z,100817.88
2023-05-13T06:19:50.577Z,100822.25
2023-05-13T06:22:21.327Z,100818.84
2023-05-13T06:24:51.562Z,100816.56
2023-05-13T06:27:21.836Z,100807.91
2023-05-13T06:29:51.976Z,100807.44
2023-05-13T06:32:22.987Z,100798.00
2023-05-13T06:34:55.928Z,100796.38
2023-05-13T06:37:27.056Z,100790.81
2023-05-13T06:39:57.373Z,100802.22
2023-05-13T06:42:27.492Z,100782.16
2023-05-13T06:45:02.069Z,100777.91
2023-05-13T06:47:32.942Z,100782.31
2023-05-13T06:50:09.831Z,100758.22
2023-05-13T06:52:41.877Z,100766.16
2023-05-13T06:55:13.103Z,100753.94
2023-05-13T06:57:43.831Z,100758.00
2023-05-13T07:00:14.613Z,100752.13
2023-05-13T07:02:45.375Z,100753.28
2023-05-13T07:05:15.740Z,100749.38
2023-05-13T07:07:46.089Z,100741.53
2023-05-13T07:10:16.437Z,100734.03
2023-05-13T07:12:46.644Z,100721.97
2023-05-13T07:15:16.865Z,100719.03
2023-05-13T07:17:47.256Z,100720.31
2023-05-13T07:20:17.769Z,100710.84
2023-05-13T07:22:48.119Z,100711.69
2023-05-13T07:25:18.513Z,100702.72
2023-05-13T07:27:48.725Z,100700.75
2023-05-13T07:30:19.234Z,100696.81
2023-05-13T07:32:50.916Z,100689.00
2023-05-13T07:35:22.362Z,100673.16
2023-05-13T07:37:52.724Z,100673.88
2023-05-13T07:40:24.424Z,100667.63
2023-05-13T07:42:54.793Z,100660.63
2023-05-13T07:45:25.608Z,100660.63
2023-05-13T07:47:55.906Z,100647.56
2023-05-13T07:50:26.290Z,100643.53
2023-05-13T07:52:56.631Z,100644.31
2023-05-13T07:55:26.919Z,100642.84
2023-05-13T07:57:57.239Z,100636.59
2023-05-13T08:00:27.594Z,100638.94
2023-05-13T08:02:58.500Z,100636.47
2023-05-13T08:05:28.992Z,100634.66
2023-05-13T08:07:59.291Z,100632.22
2023-05-13T08:10:29.720Z,100630.63
2023-05-13T08:13:00.343Z,100636.59
2023-05-13T08:15:31.020Z,100639.84
2023-05-13T08:18:01.384Z,100640.50
2023-05-13T08:20:32.317Z,100639.38
2023-05-13T08:23:04.413Z,100630.63
2023-05-13T08:25:34.998Z,100619.97
2023-05-13T08:28:06.183Z,100613.53
2023-05-13T08:30:36.710Z,100619.97
2023-05-13T08:33:08.544Z,100625.66
2023-05-13T08:35:39.184Z,100614.91
2023-05-13T08:38:09.406Z,100608.69
2023-05-13T08:40:40.325Z,100608.34
2023-05-13T08:43:13.977Z,100604.41
2023-05-13T08:45:48.323Z,100598.06
2023-05-13T08:48:19.710Z,100601.19
2023-05-13T08:50:50.627Z,100600.03
2023-05-13T08:53:21.429Z,100597.41
2023-05-13T08:55:52.827Z,100599.00
2023-05-13T08:58:23.314Z,100598.19
2023-05-13T09:00:56.502Z,100590.69
2023-05-13T09:03:30.053Z,100593.81
2023-05-13T09:06:06.089Z,100594.28
2023-05-13T09:08:36.768Z,100590.91
2023-05-13T09:11:07.248Z,100593.69
2023-05-13T09:13:38.058Z,100587.94
2023-05-13T09:16:09.574Z,100590.34
2023-05-13T09:18:40.288Z,100583.19
2023-05-13T09:21:29.906Z,100578.91
2023-05-13T09:24:26.670Z,100588.16
2023-05-13T09:26:57.054Z,100590.81
2023-05-13T09:29:31.449Z,100581.69
2023-05-13T09:32:10.079Z,100582.88
2023-05-13T09:34:40.306Z,100584.13
2023-05-13T09:37:11.681Z,100582.16
2023-05-13T09:39:42.589Z,100582.16
2023-05-13T09:42:20.218Z,100592.78
2023-05-13T09:44:52.208Z,100599.00
2023-05-13T09:47:22.438Z,100592.78
2023-05-13T09:49:59.354Z,100598.56
2023-05-13T09:52:32.494Z,100595.78
2023-05-13T09:55:03.181Z,100600.63
2023-05-13T09:57:34.900Z,100589.31
2023-05-13T10:00:28.982Z,100588.53
2023-05-13T10:03:11.025Z,100585.75
2023-05-13T10:05:44.859Z,100589.31
2023-05-13T10:08:17.550Z,100581.94
2023-05-13T10:10:49.152Z,100587.47
2023-05-13T10:13:22.042Z,100579.84
2023-05-13T10:15:57.880Z,100590.63
2023-05-13T10:18:28.656Z,100587.97
2023-05-13T10:21:00.894Z,100581.59
2023-05-13T10:23:31.971Z,100580.78
2023-05-13T10:26:02.381Z,100575.94
2023-05-13T10:28:34.441Z,100582.31
2023-05-13T10:31:05.233Z,100591.75
2023-05-13T10:33:35.678Z,100582.88
2023-05-13T10:36:08.977Z,100584.81
2023-05-13T10:38:47.522Z,100588.84
2023-05-13T10:41:43.283Z,100593.59
2023-05-13T10:44:13.643Z,100596.72
2023-05-13T10:46:46.912Z,100592.44
2023-05-13T10:49:20.906Z,100597.50
2023-05-13T10:51:51.729Z,100590.47
2023-05-13T10:54:23.853Z,100603.53
2023-05-13T10:57:01.451Z,100607.56
2023-05-13T10:59:33.212Z,100618.19
2023-05-13T11:02:26.385Z,100618.31
2023-05-13T11:05:03.699Z,100638.06
2023-05-13T11:07:34.056Z,100640.13
2023-05-13T11:10:04.352Z,100636.44
2023-05-13T11:12:35.633Z,100628.78
2023-05-13T11:15:25.130Z,100634.34
2023-05-13T11:17:56.659Z,100644.97
2023-05-13T11:20:27.832Z,100651.31
2023-05-13T11:22:57.801Z,100653.28
2023-05-13T11:25:30.027Z,100657.88
2023-05-13T11:28:00.950Z,100654.75
2023-05-13T11:30:31.417Z,100652.34
2023-05-13T11:33:05.043Z,100665.06
2023-05-13T11:35:36.121Z,100666.19
2023-05-13T11:38:08.154Z,100679.59
2023-05-13T11:40:40.722Z,100682.34
2023-05-13T11:43:12.235Z,100691.00
2023-05-13T11:45:43.620Z,100691.34
2023-05-13T11:48:25.047Z,100710.72
2023-05-13T11:50:55.515Z,100714.66
2023-05-13T11:53:26.196Z,100714.66
2023-05-13T11:55:57.996Z,100721.69
2023-05-13T11:58:28.310Z,100740.25
2023-05-13T12:00:58.657Z,100731.94
2023-05-13T12:03:30.756Z,100733.13
2023-05-13T12:06:08.113Z,100744.22
2023-05-13T12:08:45.461Z,100758.72
2023-05-13T12:11:16.678Z,100758.72
2023-05-13T12:13:46.580Z,100765.91
2023-05-13T12:16:17.016Z,100780.06
2023-05-13T12:18:59.196Z,100783.66
2023-05-13T12:21:34.849Z,100792.28
2023-05-13T12:24:05.187Z,100803.38
2023-05-13T12:26:35.502Z,100800.94
2023-05-13T12:29:06.079Z,100807.28
2023-05-13T12:31:36.480Z,100811.19
2023-05-13T12:34:08.826Z,100820.47
2023-05-13T12:36:42.535Z,100820.81
2023-05-13T12:39:14.114Z,100824.75
2023-05-13T12:41:45.259Z,100828.31
2023-05-13T12:44:18.283Z,100840.53
2023-05-13T12:46:56.034Z,100845.63
2023-05-13T12:49:26.668Z,100850.81
2023-05-13T12:51:58.290Z,100866.78
2023-05-13T12:54:28.982Z,100864.81
2023-05-13T12:56:59.471Z,100866.44
2023-05-13T12:59:31.953Z,100866.84
2023-05-13T13:02:02.298Z,100874.16
2023-05-13T13:04:33.165Z,100875.13
2023-05-13T13:07:03.719Z,100870.38
2023-05-13T13:09:33.895Z,100878.84
2023-05-13T13:12:04.202Z,100885.84
2023-05-13T13:14:34.592Z,100887.59
2023-05-13T13:17:05.000Z,100895.13
2023-05-13T13:19:35.233Z,100900.66
2023-05-13T13:22:05.684Z,100909.16
2023-05-13T13:24:36.123Z,100908.38
2023-05-13T13:27:06.946Z,100914.41
2023-05-13T13:29:37.444Z,100921.88
2023-05-13T13:32:08.435Z,100925.13
2023-05-13T13:34:39.711Z,100922.72
2023-05-13T13:37:09.772Z,100917.00
2023-05-13T13:39:39.890Z,100914.22
2023-05-13T13:42:10.510Z,100916.34
2023-05-13T13:44:43.268Z,100919.47
2023-05-13T13:47:13.836Z,100924.16
2023-05-13T13:49:44.698Z,100920.06
2023-05-13T13:52:15.309Z,100918.63
2023-05-13T13:54:46.112Z,100916.63
2023-05-13T14:05:23.557Z,100918.06
2023-05-13T14:07:56.753Z,100924.09
2023-05-13T14:10:27.938Z,100936.97
2023-05-13T14:12:59.065Z,100939.75
2023-05-13T14:15:32.632Z,100932.41
2023-05-13T14:18:03.648Z,100939.75
2023-05-13T14:20:34.036Z,100938.59
2023-05-13T14:23:05.614Z,100946.06
2023-05-13T14:25:38.345Z,100947.22
2023-05-13T14:28:09.129Z,100953.09
2023-05-13T14:30:39.939Z,100954.03
2023-05-13T14:33:10.571Z,100956.16
2023-05-13T14:35:41.181Z,100963.84
2023-05-13T14:38:12.467Z,100959.13
2023-05-13T14:40:43.230Z,100963.09
2023-05-13T14:43:14.415Z,100957.53
2023-05-13T14:45:45.299Z,100954.09
2023-05-13T14:48:15.900Z,100961.72
2023-05-13T14:50:48.276Z,100963.38
2023-05-13T14:53:18.919Z,100962.56
2023-05-13T14:55:51.430Z,100967.94
2023-05-13T14:58:22.959Z,100965.78
2023-05-13T15:00:53.623Z,100977.69
2023-05-13T15:03:24.354Z,100985.38
2023-05-13T15:05:56.942Z,100996.13
2023-05-13T15:08:28.488Z,100991.56
2023-05-13T15:10:59.169Z,100987.13
2023-05-13T15:13:31.595Z,100994.47
2023-05-13T15:16:02.651Z,100992.34
2023-05-13T15:18:34.262Z,100993.63
2023-05-13T15:21:05.055Z,101001.47
2023-05-13T15:23:35.575Z,100993.19
2023-05-13T15:26:06.299Z,100992.34
2023-05-13T15:28:36.566Z,100994.31
2023-05-13T15:31:08.187Z,100986.34
2023-05-13T15:33:38.526Z,100986.81
2023-05-13T15:36:12.272Z,100989.59
2023-05-13T15:38:42.868Z,100994.97
2023-05-13T15:41:13.060Z,100997.00
2023-05-13T15:43:43.438Z,100992.75
2023-05-13T15:46:13.725Z,100996.69
2023-05-13T15:48:44.536Z,100987.06
2023-05-13T15:51:14.845Z,100983.66
2023-05-13T15:53:45.116Z,100985.94
2023-05-13T15:56:15.588Z,100992.75
2023-05-13T15:58:45.794Z,100997.81
2023-05-13T16:01:16.304Z,100999.78
2023-05-13T16:03:46.787Z,101007.75
2023-05-13T16:06:17.148Z,101004.34
2023-05-13T16:08:47.794Z,101016.91
2023-05-13T16:11:18.321Z,101021.59
2023-05-13T16:13:48.663Z,101018.84
2023-05-13T16:16:19.075Z,101008.25
2023-05-13T16:18:49.424Z,101001.06
2023-05-13T16:21:19.842Z,101009.38
2023-05-13T16:23:50.746Z,101006.13
2023-05-13T16:26:21.110Z,101004.81
2023-05-13T16:28:51.617Z,101004.19
2023-05-13T16:31:21.800Z,100994.53
2023-05-13T16:33:52.119Z,100990.97
2023-05-13T16:36:22.344Z,100983.97
2023-05-13T16:38:52.698Z,100974.34
2023-05-13T16:41:23.532Z,100976.78
2023-05-13T16:43:53.809Z,100977.63
2023-05-13T16:46:24.059Z,100976.78
2023-05-13T16:48:55.372Z,100979.06
2023-05-13T16:51:26.753Z,100971.91
2023-05-13T16:53:57.037Z,100974.34
2023-05-13T16:56:28.621Z,100965.19
2023-05-13T16:58:58.934Z,100958.53
2023-05-13T17:01:29.127Z,100951.34
2023-05-13T17:03:59.519Z,100947.78
2023-05-13T17:06:29.967Z,100951.34
2023-05-13T17:09:00.396Z,100943.88
2023-05-13T17:11:30.704Z,100945.81
2023-05-13T17:14:02.559Z,100941.09
2023-05-13T17:16:33.039Z,100938.69
2023-05-13T17:19:03.637Z,100940.63
2023-05-13T17:21:34.062Z,100944.03
2023-05-13T17:24:04.376Z,100942.91
2023-05-13T17:26:36.137Z,100948.13
2023-05-13T17:29:07.815Z,100939.81
2023-05-13T17:31:38.158Z,100934.94
2023-05-13T17:34:09.093Z,100939.00
2023-05-13T17:36:39.455Z,100937.38
2023-05-13T17:39:10.758Z,100936.22
2023-05-13T17:41:40.977Z,100937.06
2023-05-13T17:44:11.280Z,100916.03
2023-05-13T17:46:41.613Z,100917.19
2023-05-13T17:49:13.545Z,100912.44
2023-05-13T17:51:44.462Z,100915.22
2023-05-13T17:54:14.790Z,100928.25
2023-05-13T17:56:45.141Z,100932.16
2023-05-13T17:59:15.386Z,100929.41
2023-05-13T18:01:45.637Z,100925.16
2023-05-13T18:04:15.998Z,100927.44
2023-05-13T18:06:46.323Z,100924.66
2023-05-13T18:09:16.607Z,100909.53
2023-05-13T18:11:47.969Z,100905.63
2023-05-13T18:14:18.157Z,100894.06
2023-05-13T18:16:48.501Z,100888.50
2023-05-13T18:19:18.903Z,100892.06
2023-05-13T18:21:49.287Z,100895.19
2023-05-13T18:24:19.801Z,100892.44
2023-05-13T18:26:51.234Z,100899.25
2023-05-13T18:29:21.896Z,100900.38
2023-05-13T18:31:53.843Z,100893.91
2023-05-13T18:34:24.371Z,100898.44
2023-05-13T18:36:55.410Z,100895.69
2023-05-13T18:39:25.665Z,100898.94
2023-05-13T18:41:56.073Z,100893.25
2023-05-13T18:44:26.420Z,100896.69
2023-05-13T18:46:56.802Z,100897.81
2023-05-13T18:49:30.625Z,100883.16
2023-05-13T18:52:00.898Z,100872.41
2023-05-13T18:54:31.667Z,100872.28
2023-05-13T18:57:02.057Z,100880.25
2023-05-13T18:59:32.582Z,100870.44
2023-05-13T19:02:03.154Z,100857.13
2023-05-13T19:04:33.937Z,100859.41
2023-05-13T19:07:04.181Z,100864.28
2023-05-13T19:09:35.808Z,100853.56
2023-05-13T19:12:06.344Z,100847.06
2023-05-13T19:14:36.605Z,100847.41
2023-05-13T19:17:07.135Z,100844.28
2023-05-13T19:19:38.570Z,100835.84
2023-05-13T19:22:08.435Z,100839.41
2023-05-13T19:24:38.849Z,100855.22
2023-05-13T19:27:11.607Z,100861.41
2023-05-13T19:29:41.863Z,100859.28
2023-05-13T19:32:14.255Z,100848.06
2023-05-13T19:34:44.601Z,100844.81
2023-05-13T19:37:15.148Z,100843.53
2023-05-13T19:39:45.448Z,100848.41
2023-05-13T19:42:17.058Z,100841.69
2023-05-13T19:44:47.187Z,100841.53
2023-05-13T19:47:17.414Z,100840.09
2023-05-13T19:49:47.545Z,100828.72
2023-05-13T19:52:18.187Z,100827.72
2023-05-13T19:54:48.496Z,100822.50
2023-05-13T19:57:18.772Z,100827.09
2023-05-13T19:59:50.344Z,100816.97
2023-05-13T20:02:20.784Z,100820.53
2023-05-13T20:04:51.143Z,100815.34
2023-05-13T20:07:21.572Z,100822.16
2023-05-13T20:09:51.891Z,100814.69
2023-05-13T20:12:22.366Z,100821.53
2023-05-13T20:15:01.082Z,100820.06
2023-05-13T20:17:32.697Z,100815.66
2023-05-13T20:20:03.196Z,100801.69
2023-05-13T20:22:33.647Z,100799.53
2023-05-13T20:25:03.839Z,100795.34
2023-05-13T20:27:34.160Z,100801.69
2023-05-13T20:30:04.565Z,100800.06
2023-05-13T20:32:35.060Z,100801.91
2023-05-13T20:35:07.950Z,100801.06
2023-05-13T20:37:38.500Z,100799.13
2023-05-13T20:40:09.885Z,100793.25
2023-05-13T20:42:39.816Z,100799.44
2023-05-13T20:45:11.035Z,100790.00
2023-05-13T20:47:42.912Z,100787.56
2023-05-13T20:50:13.854Z,100792.63
2023-05-13T20:52:44.313Z,100784.81
2023-05-13T20:55:14.678Z,100791.13
2023-05-13T20:57:46.463Z,100785.59
2023-05-13T21:00:17.209Z,100781.69
2023-05-13T21:02:48.358Z,100786.75
2023-05-13T21:05:18.801Z,100784.81
2023-05-13T21:07:49.099Z,100789.50
2023-05-13T21:10:21.649Z,100785.13
2023-05-13T21:12:53.671Z,100783.19
2023-05-13T21:15:24.120Z,100790.34
2023-05-13T21:17:54.584Z,100793.25
2023-05-13T21:20:25.277Z,100791.63
2023-05-13T21:22:55.760Z,100799.31
2023-05-13T21:25:27.787Z,100795.38
2023-05-13T21:27:58.104Z,100786.25
2023-05-13T21:30:28.514Z,100796.53
2023-05-13T21:32:58.926Z,100789.50
2023-05-13T21:35:29.225Z,100798.78
2023-05-13T21:38:11.009Z,100796.38
2023-05-13T21:40:42.621Z,100796.69
2023-05-13T21:43:13.544Z,100793.59
2023-05-13T21:45:43.591Z,100806.59
2023-05-13T21:48:13.834Z,100804.66
2023-05-13T21:50:44.221Z,100812.97
2023-05-13T21:53:14.925Z,100831.84
2023-05-13T21:55:46.634Z,100830.09
2023-05-13T21:58:17.083Z,100827.78
2023-05-13T22:00:47.604Z,100834.13
2023-05-13T22:03:17.671Z,100836.75
2023-05-13T22:05:48.712Z,100842.59
2023-05-13T22:08:18.695Z,100842.47
2023-05-13T22:10:48.930Z,100851.56
2023-05-13T22:13:19.702Z,100839.34
2023-05-13T22:15:51.237Z,100843.25
2023-05-13T22:18:21.846Z,100838.41
2023-05-13T22:20:53.489Z,100850.28
2023-05-13T22:23:24.976Z,100847.50
2023-05-13T22:25:55.351Z,100845.09
2023-05-13T22:28:25.567Z,100853.38
2023-05-13T22:30:57.868Z,100861.84
2023-05-13T22:33:28.496Z,100858.25
2023-05-13T22:36:00.369Z,100860.53
2023-05-13T22:38:30.714Z,100867.22
2023-05-13T22:41:01.114Z,100871.63
2023-05-13T22:43:32.145Z,100884.31
2023-05-13T22:46:02.340Z,100894.56
2023-05-13T22:48:32.724Z,100882.69
2023-05-13T22:51:03.120Z,100889.50
2023-05-13T22:53:33.463Z,100884.13
2023-05-13T22:56:03.848Z,100886.59
2023-05-13T22:58:34.065Z,100896.81
2023-05-13T23:01:04.326Z,100895.38
2023-05-13T23:03:34.647Z,100899.75
2023-05-13T23:06:04.972Z,100900.09
2023-05-13T23:08:35.492Z,100897.31
2023-05-13T23:11:06.116Z,100908.38
2023-05-13T23:13:37.536Z,100905.97
2023-05-13T23:16:08.150Z,100910.34
2023-05-13T23:18:38.359Z,100922.22
2023-05-13T23:21:11.366Z,100912.28
2023-05-13T23:23:41.703Z,100913.78
2023-05-13T23:26:11.989Z,100918.97
2023-05-13T23:28:42.360Z,100918.97
2023-05-13T23:31:12.665Z,100915.41
2023-05-13T23:33:43.047Z,100918.47
2023-05-13T23:36:13.364Z,100927.75
2023-05-13T23:38:43.661Z,100943.56
2023-05-13T23:41:13.960Z,100952.66
2023-05-13T23:43:44.369Z,100953.16
2023-05-13T23:46:14.724Z,100957.69
2023-05-13T23:48:46.136Z,100956.91
2023-05-13T23:51:16.069Z,100958.03
2023-05-13T23:53:46.283Z,100961.59
2023-05-13T23:56:17.251Z,100958.03
2023-05-13T23:58:47.529Z,100963.09
